Ana Sayfa
METAR-TAF:

METAR-TAF

Havaalanları :

Kahire Uluslararası Havalimanı

Kahire, Mısır

Enlem: 30-08N, Boylam: 031-24E, yükseklik: 64 m

Güncel hava durumu gözlemi

Rapor saat 19:30 UTC de 16 dakika önce yapıldı.
Rüzgar kuzey/kuzeydoğudan 14 kt
Sıcaklık 22°C
Nem 57%
Basınç 1015 hPa
Görüş mesafesi 10 km veya daha fazla
1500 m altında bulut yok ve kümülonimbus yok

METAR: HECA 051930Z 03014KT CAVOK 22/13 Q1015 NOSIG

Saat: 21:46 (19:46 UTC)

Tahmin

Rapor saat 17:00 UTC de 2 saat ve 46 dakika önce yapıldı.
Ayın 05'si saat 18 UTC'den ayın 06'si saat 24 UTC'ye kadar geçerli Tahmin
Rüzgar doğu/kuzeydoğudan 8 kt
Görüş mesafesi 10 km veya daha fazla
1500 m altında bulut yok ve kümülonimbus yok

TAF: HECA 051700Z 0518/0624 06008KT CAVOK

4.000'den fazla havaalanı için hava durumu gözlemleri ve tahminleri (METAR ve TAF raporları).

Kullanılabilir istasyonlar harita üzerinde sarı ve kırmızı noktalarla gösterilir.

İstasyonun adını görmek için fareyi noktanın üzerinde gezdirin.

Sonrasında hava gözlem ve tahminlerini görmek için tıklayın.

Haritayı değiştirmek için: yaklaştırmak için siyah artı işaretli yeşil düğmeye ve uzaklaştırmak için de eksi işaretli düğmeye hızla tıklayın; bitişik haritalar için yeşil okları kullanın.


METAR-TAF: